sensor_id;sensor_type;location;lat;lon;timestamp;P1;durP1;ratioP1;P2;durP2;ratioP2
21084;SDS011;34247;50.064;19.970;2022-10-20T15:33:07;2.65;;;1.70;;
21084;SDS011;34247;50.064;19.970;2022-10-20T15:34:32;3.15;;;2.53;;
21084;SDS011;34247;50.064;19.970;2022-10-20T15:35:36;4.28;;;2.28;;
21084;SDS011;34247;50.064;19.970;2022-10-20T15:36:46;2.53;;;2.10;;
21084;SDS011;34247;50.064;19.970;2022-10-20T15:37:52;3.28;;;2.83;;
21084;SDS011;34247;50.064;19.970;2022-10-20T15:39:02;2.38;;;2.25;;
21084;SDS011;34247;50.064;19.970;2022-10-20T15:40:08;2.63;;;2.42;;
21084;SDS011;34247;50.064;19.970;2022-10-20T15:41:20;4.30;;;2.90;;
21084;SDS011;34247;50.064;19.970;2022-10-20T15:42:27;4.60;;;2.63;;
21084;SDS011;34247;50.064;19.970;2022-10-20T15:43:31;5.00;;;3.13;;
21084;SDS011;34247;50.064;19.970;2022-10-20T15:44:35;4.95;;;3.30;;
21084;SDS011;34247;50.064;19.970;2022-10-20T15:45:42;7.55;;;2.45;;
21084;SDS011;34247;50.064;19.970;2022-10-20T15:46:57;4.75;;;3.33;;
21084;SDS011;34247;50.064;19.970;2022-10-20T15:48:02;7.20;;;3.75;;
21084;SDS011;34247;50.064;19.970;2022-10-20T15:49:06;3.97;;;2.80;;
21084;SDS011;34247;50.064;19.970;2022-10-20T15:50:11;9.15;;;3.40;;
21084;SDS011;34247;50.064;19.970;2022-10-20T15:51:23;3.72;;;2.67;;
21084;SDS011;34247;50.064;19.970;2022-10-20T15:52:32;5.47;;;3.03;;
21084;SDS011;34247;50.064;19.970;2022-10-20T15:53:39;5.57;;;4.05;;
21084;SDS011;34247;50.064;19.970;2022-10-20T15:54:42;6.60;;;5.00;;
21084;SDS011;34247;50.064;19.970;2022-10-20T15:55:46;4.78;;;3.30;;
21084;SDS011;34247;50.064;19.970;2022-10-20T15:56:50;8.30;;;3.95;;
21084;SDS011;34247;50.064;19.970;2022-10-20T15:57:54;4.85;;;3.85;;
21084;SDS011;34247;50.064;19.970;2022-10-20T15:58:58;5.07;;;3.67;;
21084;SDS011;34247;50.064;19.970;2022-10-20T16:00:02;7.22;;;3.95;;
21084;SDS011;34247;50.064;19.970;2022-10-20T16:01:06;7.30;;;5.05;;
21084;SDS011;34247;50.064;19.970;2022-10-20T16:02:14;6.53;;;3.65;;
21084;SDS011;34247;50.064;19.970;2022-10-20T16:03:18;8.57;;;3.60;;
21084;SDS011;34247;50.064;19.970;2022-10-20T16:04:22;9.15;;;3.97;;
21084;SDS011;34247;50.064;19.970;2022-10-20T16:05:30;8.20;;;4.22;;
21084;SDS011;34247;50.064;19.970;2022-10-20T16:06:35;6.35;;;4.05;;
21084;SDS011;34247;50.064;19.970;2022-10-20T16:07:40;6.80;;;4.50;;
21084;SDS011;34247;50.064;19.970;2022-10-20T16:08:45;8.65;;;4.43;;
21084;SDS011;34247;50.064;19.970;2022-10-20T16:09:51;6.25;;;4.07;;
21084;SDS011;34247;50.064;19.970;2022-10-20T16:10:56;7.07;;;3.25;;
21084;SDS011;34247;50.064;19.970;2022-10-20T16:11:59;9.07;;;4.53;;
21084;SDS011;34247;50.064;19.970;2022-10-20T16:13:04;7.43;;;4.03;;
21084;SDS011;34247;50.064;19.970;2022-10-20T16:14:08;5.03;;;4.05;;
21084;SDS011;34247;50.064;19.970;2022-10-20T16:15:12;7.13;;;3.83;;
21084;SDS011;34247;50.064;19.970;2022-10-20T16:16:17;8.68;;;5.22;;
21084;SDS011;34247;50.064;19.970;2022-10-20T16:17:21;5.10;;;3.72;;
21084;SDS011;34247;50.064;19.970;2022-10-20T16:18:25;4.90;;;3.38;;
21084;SDS011;34247;50.064;19.970;2022-10-20T16:19:30;6.30;;;3.40;;
21084;SDS011;34247;50.064;19.970;2022-10-20T16:20:34;5.28;;;3.15;;
21084;SDS011;34247;50.064;19.970;2022-10-20T16:21:38;8.20;;;3.17;;
21084;SDS011;34247;50.064;19.970;2022-10-20T16:22:43;5.97;;;3.92;;
21084;SDS011;34247;50.064;19.970;2022-10-20T16:23:47;4.45;;;4.05;;
21084;SDS011;34247;50.064;19.970;2022-10-20T16:24:51;10.38;;;4.28;;
21084;SDS011;34247;50.064;19.970;2022-10-20T16:25:55;7.25;;;3.13;;
21084;SDS011;34247;50.064;19.970;2022-10-20T16:26:58;4.82;;;3.58;;
21084;SDS011;34247;50.064;19.970;2022-10-20T16:28:02;5.90;;;3.38;;
21084;SDS011;34247;50.064;19.970;2022-10-20T16:29:06;10.05;;;4.00;;
21084;SDS011;34247;50.064;19.970;2022-10-20T16:30:10;8.65;;;4.22;;
21084;SDS011;34247;50.064;19.970;2022-10-20T16:31:15;6.55;;;3.03;;
21084;SDS011;34247;50.064;19.970;2022-10-20T16:32:19;5.28;;;3.83;;
21084;SDS011;34247;50.064;19.970;2022-10-20T16:33:26;5.65;;;3.58;;
21084;SDS011;34247;50.064;19.970;2022-10-20T16:34:31;3.75;;;3.28;;
21084;SDS011;34247;50.064;19.970;2022-10-20T16:35:42;4.70;;;2.80;;
21084;SDS011;34247;50.064;19.970;2022-10-20T16:36:47;5.00;;;2.60;;
21084;SDS011;34247;50.064;19.970;2022-10-20T16:37:52;2.97;;;2.03;;
21084;SDS011;34247;50.064;19.970;2022-10-20T16:38:56;8.50;;;2.92;;
21084;SDS011;34247;50.064;19.970;2022-10-20T16:40:02;2.72;;;2.50;;
21084;SDS011;34247;50.064;19.970;2022-10-20T16:41:10;2.85;;;2.65;;
21084;SDS011;34247;50.064;19.970;2022-10-20T16:42:17;5.05;;;3.45;;
21084;SDS011;34247;50.064;19.970;2022-10-20T16:43:22;3.83;;;2.60;;
21084;SDS011;34247;50.064;19.970;2022-10-20T16:44:25;3.95;;;2.83;;
21084;SDS011;34247;50.064;19.970;2022-10-20T16:45:32;6.05;;;2.72;;
21084;SDS011;34247;50.064;19.970;2022-10-20T16:46:40;3.67;;;2.58;;
21084;SDS011;34247;50.064;19.970;2022-10-20T16:47:44;5.95;;;2.75;;
21084;SDS011;34247;50.064;19.970;2022-10-20T16:48:48;4.10;;;2.72;;
21084;SDS011;34247;50.064;19.970;2022-10-20T16:49:52;8.70;;;3.70;;
21084;SDS011;34247;50.064;19.970;2022-10-20T16:50:56;7.63;;;3.50;;
21084;SDS011;34247;50.064;19.970;2022-10-20T16:51:59;5.30;;;3.42;;
21084;SDS011;34247;50.064;19.970;2022-10-20T16:53:03;6.32;;;3.05;;
21084;SDS011;34247;50.064;19.970;2022-10-20T16:54:07;4.60;;;2.40;;
21084;SDS011;34247;50.064;19.970;2022-10-20T16:55:11;3.10;;;2.67;;
21084;SDS011;34247;50.064;19.970;2022-10-20T16:56:15;6.53;;;2.45;;
21084;SDS011;34247;50.064;19.970;2022-10-20T16:57:26;4.55;;;2.35;;
21084;SDS011;34247;50.064;19.970;2022-10-20T16:58:32;2.45;;;2.10;;
21084;SDS011;34247;50.064;19.970;2022-10-20T16:59:36;3.17;;;2.10;;
21084;SDS011;34247;50.064;19.970;2022-10-20T17:00:40;3.13;;;2.75;;
21084;SDS011;34247;50.064;19.970;2022-10-20T17:01:45;3.85;;;2.72;;
21084;SDS011;34247;50.064;19.970;2022-10-20T17:02:48;3.10;;;2.33;;
21084;SDS011;34247;50.064;19.970;2022-10-20T17:03:54;5.88;;;2.42;;
21084;SDS011;34247;50.064;19.970;2022-10-20T17:04:58;2.85;;;2.65;;
21084;SDS011;34247;50.064;19.970;2022-10-20T17:06:07;2.00;;;1.80;;
21084;SDS011;34247;50.064;19.970;2022-10-20T17:07:12;2.17;;;1.95;;
21084;SDS011;34247;50.064;19.970;2022-10-20T17:08:16;3.88;;;2.42;;
21084;SDS011;34247;50.064;19.970;2022-10-20T17:09:19;2.80;;;2.58;;
21084;SDS011;34247;50.064;19.970;2022-10-20T17:10:23;4.40;;;3.17;;
21084;SDS011;34247;50.064;19.970;2022-10-20T17:11:28;2.47;;;1.80;;
21084;SDS011;34247;50.064;19.970;2022-10-20T17:12:34;2.30;;;2.10;;
21084;SDS011;34247;50.064;19.970;2022-10-20T17:13:38;2.88;;;2.60;;
21084;SDS011;34247;50.064;19.970;2022-10-20T17:14:43;3.15;;;2.22;;
21084;SDS011;34247;50.064;19.970;2022-10-20T17:15:47;3.63;;;2.45;;
21084;SDS011;34247;50.064;19.970;2022-10-20T17:16:50;4.18;;;2.78;;
21084;SDS011;34247;50.064;19.970;2022-10-20T17:17:54;3.35;;;2.97;;
21084;SDS011;34247;50.064;19.970;2022-10-20T17:18:59;8.55;;;2.78;;
21084;SDS011;34247;50.064;19.970;2022-10-20T17:20:04;3.70;;;2.70;;
21084;SDS011;34247;50.064;19.970;2022-10-20T17:21:09;8.32;;;2.20;;
21084;SDS011;34247;50.064;19.970;2022-10-20T17:22:14;3.53;;;3.22;;
21084;SDS011;34247;50.064;19.970;2022-10-20T17:23:19;4.78;;;2.63;;
21084;SDS011;34247;50.064;19.970;2022-10-20T17:24:24;3.40;;;2.35;;
21084;SDS011;34247;50.064;19.970;2022-10-20T17:25:29;2.92;;;2.13;;
21084;SDS011;34247;50.064;19.970;2022-10-20T17:26:36;2.60;;;2.40;;
21084;SDS011;34247;50.064;19.970;2022-10-20T17:27:42;5.53;;;2.50;;
21084;SDS011;34247;50.064;19.970;2022-10-20T17:28:46;3.60;;;2.50;;
21084;SDS011;34247;50.064;19.970;2022-10-20T17:29:50;3.28;;;2.22;;
21084;SDS011;34247;50.064;19.970;2022-10-20T17:30:54;7.13;;;2.53;;
21084;SDS011;34247;50.064;19.970;2022-10-20T17:31:59;3.22;;;2.65;;
21084;SDS011;34247;50.064;19.970;2022-10-20T17:33:03;4.30;;;2.28;;
21084;SDS011;34247;50.064;19.970;2022-10-20T17:34:07;6.78;;;2.75;;
21084;SDS011;34247;50.064;19.970;2022-10-20T17:35:11;3.53;;;3.22;;
21084;SDS011;34247;50.064;19.970;2022-10-20T17:36:17;3.78;;;2.15;;
21084;SDS011;34247;50.064;19.970;2022-10-20T17:37:34;5.25;;;2.45;;
21084;SDS011;34247;50.064;19.970;2022-10-20T17:39:02;5.78;;;2.10;;
21084;SDS011;34247;50.064;19.970;2022-10-20T17:40:12;2.47;;;2.03;;
21084;SDS011;34247;50.064;19.970;2022-10-20T17:41:21;5.03;;;3.28;;
21084;SDS011;34247;50.064;19.970;2022-10-20T17:42:30;2.40;;;2.20;;
21084;SDS011;34247;50.064;19.970;2022-10-20T17:43:35;4.28;;;2.67;;
21084;SDS011;34247;50.064;19.970;2022-10-20T17:44:39;7.65;;;3.67;;
21084;SDS011;34247;50.064;19.970;2022-10-20T17:45:55;6.35;;;2.10;;
21084;SDS011;34247;50.064;19.970;2022-10-20T17:47:15;5.15;;;3.20;;
21084;SDS011;34247;50.064;19.970;2022-10-20T17:48:19;3.17;;;2.58;;
21084;SDS011;34247;50.064;19.970;2022-10-20T17:49:23;2.92;;;2.50;;
21084;SDS011;34247;50.064;19.970;2022-10-20T17:50:27;2.72;;;2.53;;
21084;SDS011;34247;50.064;19.970;2022-10-20T17:51:32;4.32;;;2.95;;
21084;SDS011;34247;50.064;19.970;2022-10-20T17:52:37;2.47;;;2.03;;
21084;SDS011;34247;50.064;19.970;2022-10-20T17:53:45;4.97;;;2.83;;
21084;SDS011;34247;50.064;19.970;2022-10-20T17:54:55;4.03;;;2.53;;
21084;SDS011;34247;50.064;19.970;2022-10-20T17:56:00;8.68;;;3.03;;
21084;SDS011;34247;50.064;19.970;2022-10-20T17:57:15;4.60;;;2.80;;
21084;SDS011;34247;50.064;19.970;2022-10-20T17:58:20;4.47;;;2.90;;
21084;SDS011;34247;50.064;19.970;2022-10-20T17:59:35;3.45;;;2.60;;
21084;SDS011;34247;50.064;19.970;2022-10-20T18:01:05;6.57;;;2.78;;
21084;SDS011;34247;50.064;19.970;2022-10-20T18:02:30;5.57;;;3.38;;
21084;SDS011;34247;50.064;19.970;2022-10-20T18:03:36;3.33;;;3.03;;
21084;SDS011;34247;50.064;19.970;2022-10-20T18:04:41;13.00;;;3.88;;
21084;SDS011;34247;50.064;19.970;2022-10-20T18:05:44;4.32;;;3.83;;
21084;SDS011;34247;50.064;19.970;2022-10-20T18:06:48;3.10;;;2.83;;
21084;SDS011;34247;50.064;19.970;2022-10-20T18:07:56;9.10;;;2.75;;
21084;SDS011;34247;50.064;19.970;2022-10-20T18:09:02;4.88;;;2.85;;
21084;SDS011;34247;50.064;19.970;2022-10-20T18:10:13;4.68;;;2.72;;
21084;SDS011;34247;50.064;19.970;2022-10-20T18:11:18;3.45;;;2.58;;
21084;SDS011;34247;50.064;19.970;2022-10-20T18:12:29;5.30;;;3.20;;
21084;SDS011;34247;50.064;19.970;2022-10-20T18:13:34;5.22;;;3.47;;
21084;SDS011;34247;50.064;19.970;2022-10-20T18:14:42;5.30;;;3.17;;
21084;SDS011;34247;50.064;19.970;2022-10-20T18:15:47;8.25;;;3.20;;
21084;SDS011;34247;50.064;19.970;2022-10-20T18:16:56;12.57;;;3.42;;
21084;SDS011;34247;50.064;19.970;2022-10-20T18:18:00;8.65;;;3.53;;
21084;SDS011;34247;50.064;19.970;2022-10-20T18:19:06;9.23;;;2.70;;
21084;SDS011;34247;50.064;19.970;2022-10-20T18:20:15;4.65;;;2.83;;
21084;SDS011;34247;50.064;19.970;2022-10-20T18:21:19;6.78;;;2.80;;
21084;SDS011;34247;50.064;19.970;2022-10-20T18:22:23;4.93;;;3.58;;
21084;SDS011;34247;50.064;19.970;2022-10-20T18:23:29;6.68;;;3.45;;
21084;SDS011;34247;50.064;19.970;2022-10-20T18:24:36;4.75;;;3.00;;
21084;SDS011;34247;50.064;19.970;2022-10-20T18:25:39;5.82;;;2.50;;
21084;SDS011;34247;50.064;19.970;2022-10-20T18:26:44;3.42;;;2.90;;
21084;SDS011;34247;50.064;19.970;2022-10-20T18:27:48;3.88;;;3.13;;
21084;SDS011;34247;50.064;19.970;2022-10-20T18:28:54;3.22;;;2.85;;
21084;SDS011;34247;50.064;19.970;2022-10-20T18:29:59;11.63;;;3.88;;
21084;SDS011;34247;50.064;19.970;2022-10-20T18:31:10;5.93;;;4.00;;
21084;SDS011;34247;50.064;19.970;2022-10-20T18:32:20;6.43;;;2.58;;
21084;SDS011;34247;50.064;19.970;2022-10-20T18:33:24;4.57;;;3.08;;
21084;SDS011;34247;50.064;19.970;2022-10-20T18:34:27;13.10;;;4.18;;
21084;SDS011;34247;50.064;19.970;2022-10-20T18:35:34;4.22;;;3.60;;
21084;SDS011;34247;50.064;19.970;2022-10-20T18:36:39;4.82;;;2.83;;
21084;SDS011;34247;50.064;19.970;2022-10-20T18:37:51;4.28;;;3.38;;
21084;SDS011;34247;50.064;19.970;2022-10-20T18:38:59;9.13;;;4.10;;
21084;SDS011;34247;50.064;19.970;2022-10-20T18:40:04;5.25;;;3.33;;
21084;SDS011;34247;50.064;19.970;2022-10-20T18:41:12;6.80;;;3.33;;
21084;SDS011;34247;50.064;19.970;2022-10-20T18:42:22;9.32;;;4.15;;
21084;SDS011;34247;50.064;19.970;2022-10-20T18:43:30;8.05;;;4.78;;
21084;SDS011;34247;50.064;19.970;2022-10-20T18:44:38;5.93;;;3.70;;
21084;SDS011;34247;50.064;19.970;2022-10-20T18:45:49;5.30;;;3.53;;
21084;SDS011;34247;50.064;19.970;2022-10-20T18:46:57;5.85;;;4.25;;
21084;SDS011;34247;50.064;19.970;2022-10-20T18:48:01;10.05;;;4.85;;
21084;SDS011;34247;50.064;19.970;2022-10-20T18:49:07;8.20;;;4.13;;
21084;SDS011;34247;50.064;19.970;2022-10-20T18:50:14;6.22;;;3.63;;
21084;SDS011;34247;50.064;19.970;2022-10-20T18:51:23;7.55;;;3.63;;
21084;SDS011;34247;50.064;19.970;2022-10-20T18:52:31;10.07;;;4.10;;
21084;SDS011;34247;50.064;19.970;2022-10-20T18:53:37;8.35;;;3.63;;
21084;SDS011;34247;50.064;19.970;2022-10-20T18:54:47;4.80;;;3.05;;
21084;SDS011;34247;50.064;19.970;2022-10-20T18:55:58;4.22;;;2.88;;
21084;SDS011;34247;50.064;19.970;2022-10-20T18:57:13;7.95;;;3.42;;
21084;SDS011;34247;50.064;19.970;2022-10-20T18:58:17;8.82;;;4.22;;
21084;SDS011;34247;50.064;19.970;2022-10-20T18:59:21;6.45;;;3.60;;
21084;SDS011;34247;50.064;19.970;2022-10-20T19:00:25;4.47;;;2.75;;
21084;SDS011;34247;50.064;19.970;2022-10-20T19:01:30;9.35;;;4.93;;
21084;SDS011;34247;50.064;19.970;2022-10-20T19:02:37;6.85;;;4.57;;
21084;SDS011;34247;50.064;19.970;2022-10-20T19:03:45;10.23;;;4.32;;
21084;SDS011;34247;50.064;19.970;2022-10-20T19:04:53;10.18;;;4.07;;
21084;SDS011;34247;50.064;19.970;2022-10-20T19:06:10;5.97;;;4.00;;
21084;SDS011;34247;50.064;19.970;2022-10-20T19:07:17;6.47;;;3.42;;
21084;SDS011;34247;50.064;19.970;2022-10-20T19:08:21;5.40;;;4.32;;
21084;SDS011;34247;50.064;19.970;2022-10-20T19:09:25;6.88;;;3.47;;
21084;SDS011;34247;50.064;19.970;2022-10-20T19:10:29;10.23;;;4.03;;
21084;SDS011;34247;50.064;19.970;2022-10-20T19:11:33;11.82;;;4.65;;
21084;SDS011;34247;50.064;19.970;2022-10-20T19:12:41;4.20;;;3.55;;
21084;SDS011;34247;50.064;19.970;2022-10-20T19:13:45;5.35;;;3.65;;
21084;SDS011;34247;50.064;19.970;2022-10-20T19:14:50;10.85;;;4.53;;
21084;SDS011;34247;50.064;19.970;2022-10-20T19:15:55;7.00;;;3.22;;
21084;SDS011;34247;50.064;19.970;2022-10-20T19:17:01;7.25;;;4.22;;
21084;SDS011;34247;50.064;19.970;2022-10-20T19:18:05;9.50;;;4.68;;
21084;SDS011;34247;50.064;19.970;2022-10-20T19:19:09;4.68;;;3.65;;
21084;SDS011;34247;50.064;19.970;2022-10-20T19:20:13;4.32;;;3.85;;
21084;SDS011;34247;50.064;19.970;2022-10-20T19:21:30;12.05;;;3.53;;
21084;SDS011;34247;50.064;19.970;2022-10-20T19:22:36;4.13;;;3.47;;
21084;SDS011;34247;50.064;19.970;2022-10-20T19:23:42;10.60;;;3.92;;
21084;SDS011;34247;50.064;19.970;2022-10-20T19:24:53;4.43;;;3.42;;
21084;SDS011;34247;50.064;19.970;2022-10-20T19:26:04;6.72;;;3.63;;
21084;SDS011;34247;50.064;19.970;2022-10-20T19:27:12;5.15;;;4.10;;
21084;SDS011;34247;50.064;19.970;2022-10-20T19:28:29;7.03;;;2.70;;
21084;SDS011;34247;50.064;19.970;2022-10-20T19:29:36;7.70;;;4.10;;
21084;SDS011;34247;50.064;19.970;2022-10-20T19:30:40;7.35;;;3.55;;
21084;SDS011;34247;50.064;19.970;2022-10-20T19:31:46;7.70;;;4.25;;
21084;SDS011;34247;50.064;19.970;2022-10-20T19:32:54;5.93;;;4.53;;
21084;SDS011;34247;50.064;19.970;2022-10-20T19:34:03;7.22;;;4.65;;
21084;SDS011;34247;50.064;19.970;2022-10-20T19:35:27;6.07;;;4.30;;
21084;SDS011;34247;50.064;19.970;2022-10-20T19:36:35;10.07;;;3.80;;
21084;SDS011;34247;50.064;19.970;2022-10-20T19:37:40;8.07;;;4.47;;
21084;SDS011;34247;50.064;19.970;2022-10-20T19:38:45;10.18;;;4.07;;
21084;SDS011;34247;50.064;19.970;2022-10-20T19:39:50;6.30;;;3.63;;
21084;SDS011;34247;50.064;19.970;2022-10-20T19:40:54;8.07;;;4.05;;
21084;SDS011;34247;50.064;19.970;2022-10-20T19:42:00;6.63;;;3.45;;
21084;SDS011;34247;50.064;19.970;2022-10-20T19:43:07;12.63;;;3.88;;
21084;SDS011;34247;50.064;19.970;2022-10-20T19:44:12;6.50;;;3.45;;
21084;SDS011;34247;50.064;19.970;2022-10-20T19:45:19;10.02;;;3.97;;
21084;SDS011;34247;50.064;19.970;2022-10-20T19:46:22;10.38;;;4.65;;
21084;SDS011;34247;50.064;19.970;2022-10-20T19:47:31;8.15;;;4.30;;
21084;SDS011;34247;50.064;19.970;2022-10-20T19:48:36;4.63;;;3.97;;
21084;SDS011;34247;50.064;19.970;2022-10-20T19:49:39;9.95;;;5.00;;
21084;SDS011;34247;50.064;19.970;2022-10-20T19:50:44;9.02;;;4.22;;
21084;SDS011;34247;50.064;19.970;2022-10-20T19:51:48;4.30;;;3.33;;
21084;SDS011;34247;50.064;19.970;2022-10-20T19:52:53;6.07;;;3.22;;
21084;SDS011;34247;50.064;19.970;2022-10-20T19:54:00;7.80;;;4.47;;
21084;SDS011;34247;50.064;19.970;2022-10-20T19:55:12;6.05;;;3.65;;
21084;SDS011;34247;50.064;19.970;2022-10-20T19:56:17;6.38;;;3.63;;
21084;SDS011;34247;50.064;19.970;2022-10-20T19:57:21;8.23;;;3.70;;
21084;SDS011;34247;50.064;19.970;2022-10-20T19:58:25;9.10;;;3.83;;
21084;SDS011;34247;50.064;19.970;2022-10-20T19:59:31;7.63;;;3.50;;
21084;SDS011;34247;50.064;19.970;2022-10-20T20:00:36;10.05;;;4.10;;
21084;SDS011;34247;50.064;19.970;2022-10-20T20:01:45;8.25;;;4.10;;
21084;SDS011;34247;50.064;19.970;2022-10-20T20:02:57;8.75;;;4.53;;
21084;SDS011;34247;50.064;19.970;2022-10-20T20:04:01;10.35;;;4.68;;
21084;SDS011;34247;50.064;19.970;2022-10-20T20:05:06;5.47;;;3.92;;
21084;SDS011;34247;50.064;19.970;2022-10-20T20:06:12;8.05;;;4.13;;
21084;SDS011;34247;50.064;19.970;2022-10-20T20:07:19;10.25;;;4.70;;
21084;SDS011;34247;50.064;19.970;2022-10-20T20:08:24;9.55;;;4.28;;
21084;SDS011;34247;50.064;19.970;2022-10-20T20:09:28;8.05;;;4.47;;
21084;SDS011;34247;50.064;19.970;2022-10-20T20:10:34;7.38;;;4.68;;
21084;SDS011;34247;50.064;19.970;2022-10-20T20:11:40;7.07;;;4.05;;
21084;SDS011;34247;50.064;19.970;2022-10-20T20:12:45;6.55;;;4.57;;
21084;SDS011;34247;50.064;19.970;2022-10-20T20:13:50;6.85;;;4.50;;
21084;SDS011;34247;50.064;19.970;2022-10-20T20:14:58;7.03;;;4.50;;
21084;SDS011;34247;50.064;19.970;2022-10-20T20:16:03;10.00;;;3.83;;
21084;SDS011;34247;50.064;19.970;2022-10-20T20:17:09;11.80;;;4.40;;
21084;SDS011;34247;50.064;19.970;2022-10-20T20:18:13;9.98;;;4.40;;
21084;SDS011;34247;50.064;19.970;2022-10-20T20:19:19;9.20;;;4.72;;
21084;SDS011;34247;50.064;19.970;2022-10-20T20:20:26;4.97;;;4.10;;
21084;SDS011;34247;50.064;19.970;2022-10-20T20:21:30;5.53;;;4.25;;
21084;SDS011;34247;50.064;19.970;2022-10-20T20:22:45;8.70;;;4.68;;
21084;SDS011;34247;50.064;19.970;2022-10-20T20:23:53;10.95;;;4.40;;
21084;SDS011;34247;50.064;19.970;2022-10-20T20:25:11;6.55;;;3.65;;
21084;SDS011;34247;50.064;19.970;2022-10-20T20:26:16;8.13;;;3.80;;
21084;SDS011;34247;50.064;19.970;2022-10-20T20:27:20;5.65;;;3.50;;
21084;SDS011;34247;50.064;19.970;2022-10-20T20:28:24;7.30;;;4.60;;
21084;SDS011;34247;50.064;19.970;2022-10-20T20:29:29;9.50;;;4.50;;
21084;SDS011;34247;50.064;19.970;2022-10-20T20:30:34;6.85;;;4.72;;
21084;SDS011;34247;50.064;19.970;2022-10-20T20:31:38;5.60;;;4.28;;
21084;SDS011;34247;50.064;19.970;2022-10-20T20:32:42;7.68;;;4.55;;
21084;SDS011;34247;50.064;19.970;2022-10-20T20:33:54;8.25;;;4.75;;
21084;SDS011;34247;50.064;19.970;2022-10-20T20:35:02;6.93;;;4.78;;
21084;SDS011;34247;50.064;19.970;2022-10-20T20:36:11;7.50;;;4.07;;
21084;SDS011;34247;50.064;19.970;2022-10-20T20:37:16;6.70;;;4.20;;
21084;SDS011;34247;50.064;19.970;2022-10-20T20:38:20;6.30;;;4.50;;
21084;SDS011;34247;50.064;19.970;2022-10-20T20:39:24;5.38;;;3.35;;
21084;SDS011;34247;50.064;19.970;2022-10-20T20:40:28;6.10;;;4.03;;
21084;SDS011;34247;50.064;19.970;2022-10-20T20:41:34;8.73;;;3.95;;
21084;SDS011;34247;50.064;19.970;2022-10-20T20:42:40;6.85;;;4.32;;
21084;SDS011;34247;50.064;19.970;2022-10-20T20:43:44;6.10;;;4.78;;
21084;SDS011;34247;50.064;19.970;2022-10-20T20:44:50;10.63;;;4.72;;
21084;SDS011;34247;50.064;19.970;2022-10-20T20:45:57;11.13;;;4.43;;
21084;SDS011;34247;50.064;19.970;2022-10-20T20:47:10;9.98;;;5.55;;
21084;SDS011;34247;50.064;19.970;2022-10-20T20:48:14;7.07;;;4.32;;
21084;SDS011;34247;50.064;19.970;2022-10-20T20:49:18;7.32;;;4.68;;
21084;SDS011;34247;50.064;19.970;2022-10-20T20:50:22;5.07;;;4.55;;
21084;SDS011;34247;50.064;19.970;2022-10-20T20:51:25;11.52;;;4.43;;
21084;SDS011;34247;50.064;19.970;2022-10-20T20:52:31;7.75;;;4.00;;
21084;SDS011;34247;50.064;19.970;2022-10-20T20:53:35;6.70;;;4.35;;
21084;SDS011;34247;50.064;19.970;2022-10-20T20:54:41;6.82;;;4.70;;
21084;SDS011;34247;50.064;19.970;2022-10-20T20:55:52;15.00;;;5.22;;
21084;SDS011;34247;50.064;19.970;2022-10-20T20:56:58;11.30;;;4.60;;
21084;SDS011;34247;50.064;19.970;2022-10-20T20:58:02;9.82;;;5.22;;
21084;SDS011;34247;50.064;19.970;2022-10-20T20:59:05;11.32;;;4.93;;
21084;SDS011;34247;50.064;19.970;2022-10-20T21:00:10;8.70;;;4.70;;
21084;SDS011;34247;50.064;19.970;2022-10-20T21:01:19;6.75;;;4.32;;
21084;SDS011;34247;50.064;19.970;2022-10-20T21:02:30;8.52;;;4.28;;
21084;SDS011;34247;50.064;19.970;2022-10-20T21:03:35;4.78;;;3.97;;
21084;SDS011;34247;50.064;19.970;2022-10-20T21:04:40;8.20;;;4.65;;
21084;SDS011;34247;50.064;19.970;2022-10-20T21:05:46;9.90;;;5.38;;
21084;SDS011;34247;50.064;19.970;2022-10-20T21:06:50;8.00;;;5.32;;
21084;SDS011;34247;50.064;19.970;2022-10-20T21:08:10;9.52;;;5.28;;
21084;SDS011;34247;50.064;19.970;2022-10-20T21:09:14;9.65;;;4.85;;
21084;SDS011;34247;50.064;19.970;2022-10-20T21:10:18;7.43;;;4.70;;
21084;SDS011;34247;50.064;19.970;2022-10-20T21:11:22;12.85;;;5.68;;
21084;SDS011;34247;50.064;19.970;2022-10-20T21:12:30;12.50;;;6.00;;
21084;SDS011;34247;50.064;19.970;2022-10-20T21:13:37;9.38;;;4.18;;
21084;SDS011;34247;50.064;19.970;2022-10-20T21:14:42;8.50;;;6.18;;
21084;SDS011;34247;50.064;19.970;2022-10-20T21:15:49;7.22;;;4.60;;
21084;SDS011;34247;50.064;19.970;2022-10-20T21:16:53;5.50;;;3.88;;
21084;SDS011;34247;50.064;19.970;2022-10-20T21:17:58;10.27;;;5.35;;
21084;SDS011;34247;50.064;19.970;2022-10-20T21:19:03;6.43;;;4.75;;
21084;SDS011;34247;50.064;19.970;2022-10-20T21:20:11;7.40;;;4.30;;
21084;SDS011;34247;50.064;19.970;2022-10-20T21:21:16;9.65;;;4.70;;
21084;SDS011;34247;50.064;19.970;2022-10-20T21:22:23;6.75;;;4.60;;
21084;SDS011;34247;50.064;19.970;2022-10-20T21:23:27;6.55;;;4.47;;
21084;SDS011;34247;50.064;19.970;2022-10-20T21:24:33;8.07;;;5.35;;
21084;SDS011;34247;50.064;19.970;2022-10-20T21:25:37;12.32;;;5.75;;
21084;SDS011;34247;50.064;19.970;2022-10-20T21:26:42;8.38;;;4.80;;
21084;SDS011;34247;50.064;19.970;2022-10-20T21:27:46;7.75;;;5.35;;
21084;SDS011;34247;50.064;19.970;2022-10-20T21:28:50;10.80;;;5.75;;
21084;SDS011;34247;50.064;19.970;2022-10-20T21:29:56;7.72;;;4.28;;
21084;SDS011;34247;50.064;19.970;2022-10-20T21:31:07;8.20;;;5.40;;
21084;SDS011;34247;50.064;19.970;2022-10-20T21:32:16;12.63;;;4.72;;
21084;SDS011;34247;50.064;19.970;2022-10-20T21:33:25;9.57;;;5.45;;
21084;SDS011;34247;50.064;19.970;2022-10-20T21:34:30;9.90;;;5.55;;
21084;SDS011;34247;50.064;19.970;2022-10-20T21:35:34;14.10;;;5.97;;
21084;SDS011;34247;50.064;19.970;2022-10-20T21:36:38;12.93;;;5.68;;
21084;SDS011;34247;50.064;19.970;2022-10-20T21:37:42;16.52;;;6.38;;
21084;SDS011;34247;50.064;19.970;2022-10-20T21:38:50;5.95;;;4.38;;
21084;SDS011;34247;50.064;19.970;2022-10-20T21:39:54;9.68;;;5.05;;
21084;SDS011;34247;50.064;19.970;2022-10-20T21:42:17;10.02;;;5.70;;
21084;SDS011;34247;50.064;19.970;2022-10-20T21:43:22;8.15;;;5.40;;
21084;SDS011;34247;50.064;19.970;2022-10-20T21:44:30;8.95;;;4.55;;
21084;SDS011;34247;50.064;19.970;2022-10-20T21:45:35;15.60;;;4.55;;
21084;SDS011;34247;50.064;19.970;2022-10-20T21:46:42;7.45;;;4.40;;
21084;SDS011;34247;50.064;19.970;2022-10-20T21:47:54;11.10;;;5.15;;
21084;SDS011;34247;50.064;19.970;2022-10-20T21:48:59;8.13;;;3.95;;
21084;SDS011;34247;50.064;19.970;2022-10-20T21:50:09;20.83;;;4.78;;
21084;SDS011;34247;50.064;19.970;2022-10-20T21:51:24;9.18;;;4.70;;
21084;SDS011;34247;50.064;19.970;2022-10-20T21:52:34;6.68;;;5.05;;
21084;SDS011;34247;50.064;19.970;2022-10-20T21:53:41;10.63;;;4.45;;
21084;SDS011;34247;50.064;19.970;2022-10-20T21:54:45;8.77;;;4.65;;
21084;SDS011;34247;50.064;19.970;2022-10-20T21:55:50;8.07;;;5.28;;
21084;SDS011;34247;50.064;19.970;2022-10-20T21:56:54;13.48;;;6.13;;
21084;SDS011;34247;50.064;19.970;2022-10-20T21:57:59;11.45;;;5.22;;
21084;SDS011;34247;50.064;19.970;2022-10-20T21:59:03;12.27;;;4.70;;
21084;SDS011;34247;50.064;19.970;2022-10-20T22:00:08;13.43;;;6.13;;
21084;SDS011;34247;50.064;19.970;2022-10-20T22:01:18;15.05;;;5.13;;
21084;SDS011;34247;50.064;19.970;2022-10-20T22:02:26;8.35;;;5.30;;
21084;SDS011;34247;50.064;19.970;2022-10-20T22:03:37;10.25;;;5.05;;
21084;SDS011;34247;50.064;19.970;2022-10-20T22:04:45;8.95;;;5.25;;
21084;SDS011;34247;50.064;19.970;2022-10-20T22:05:49;8.43;;;4.28;;
21084;SDS011;34247;50.064;19.970;2022-10-20T22:06:57;12.05;;;4.32;;
21084;SDS011;34247;50.064;19.970;2022-10-20T22:08:02;11.10;;;4.70;;